Seabourn Spirit — C6FR4 — position and weather

sailwx.info

Track history (hours):
 
Tides and Currents Weather Stations Pressure Air Temp Water Temp Dewpoint Dewpoint Depression Visibility Wind Speed Wind Dir Waves Ship Positions

Seabourn Spirit

Operator: Cunard Seabourn

Last reported at 2019-Jul-11 08:53 UTC. Time now 2019-Jul-16 10:07 UTC.
Position N 65°13' W 013°21'.

Length 133 m; draft 5.7 m.

Type: Ship. MMSI: 311083000.

Date/timePositionNaut miles runAvg speedWind from/ knotsBaromVisibWave heightAir tempDewpointWater temp
2019-Jul-11 08:53N 65°13' W 013°21'9 7.5
2019-Jul-11 07:45N 65°05' W 013°19'5 8.7
2019-Jul-11 07:13N 65°00' W 013°20'2 9.3
2019-Jul-11 07:00N 64°58' W 013°20'5 9.2
2019-Jul-11 06:31N 64°54' W 013°24'5 9.3
2019-Jul-11 06:00N 64°50' W 013°29'5 9.0
2019-Jul-11 05:30N 64°46' W 013°35'  
2019-Jul-04 16:28N 65°14' W 013°22'911.0
2019-Jul-04 15:39N 65°05' W 013°19'1 9.8
2019-Jul-04 15:30N 65°03' W 013°20'5 9.6
2019-Jul-04 15:00N 64°59' W 013°23'5 9.9
2019-Jul-04 14:31N 64°54' W 013°26'510.1
2019-Jul-04 14:01N 64°50' W 013°32'510.4
2019-Jul-04 13:31N 64°45' W 013°38'1611.5
2019-Jul-04 12:06N 64°32' W 013°59'  
Track history (hours):
 
Tides and Currents Weather Stations Pressure Air Temp Water Temp Dewpoint Dewpoint Depression Visibility Wind Speed Wind Dir Waves Ship Positions

Seabourn Spirit

Operator: Cunard Seabourn

Last reported at 2019-Jul-11 08:53 UTC. Time now 2019-Jul-16 10:07 UTC.
Position N 65°13' W 013°21'.

Length 133 m; draft 5.7 m.

Type: Ship. MMSI: 311083000.

Date/timePositionNaut miles runAvg speedWind from/ knotsBaromVisibWave heightAir tempDewpointWater temp
2019-Jul-11 08:53N 65°13' W 013°21'9 7.5
2019-Jul-11 07:45N 65°05' W 013°19'5 8.7
2019-Jul-11 07:13N 65°00' W 013°20'2 9.3
2019-Jul-11 07:00N 64°58' W 013°20'5 9.2
2019-Jul-11 06:31N 64°54' W 013°24'5 9.3
2019-Jul-11 06:00N 64°50' W 013°29'5 9.0
2019-Jul-11 05:30N 64°46' W 013°35'  
2019-Jul-04 16:28N 65°14' W 013°22'911.0
2019-Jul-04 15:39N 65°05' W 013°19'1 9.8
2019-Jul-04 15:30N 65°03' W 013°20'5 9.6
2019-Jul-04 15:00N 64°59' W 013°23'5 9.9
2019-Jul-04 14:31N 64°54' W 013°26'510.1
2019-Jul-04 14:01N 64°50' W 013°32'510.4
2019-Jul-04 13:31N 64°45' W 013°38'1611.5
2019-Jul-04 12:06N 64°32' W 013°59'  

Dump ship's entire track history